LPMA/FNC METAR and TAF weather

Enter ICAO airport designator
Station Type Date Time Source
LPMA METAR 2019/11/22 01:00 UTC NOAA

LPMA 220100Z 29004KT 9999 FEW015 18/16 Q1013


Station Type Date Time Source
LPMA Decoded METAR 2019/11/22 01:00 UTC NOAA

Aeroporto Da Madeira, Portugal (LPMA) 32-41-52N 016-46-28W
Nov 21, 2019 - 08:00 PM EST / 2019.11.22 0100 UTC
Wind: from the WNW (290 degrees) at 5 MPH (4 KT):0
Visibility: greater than 7 mile(s):0
Sky conditions: mostly clear
Temperature: 64 F (18 C)
Dew Point: 60 F (16 C)
Relative Humidity: 88%
Pressure (altimeter): 29.91 in. Hg (1013 hPa)
ob: LPMA 220100Z 29004KT 9999 FEW015 18/16 Q1013
cycle: 1

Station Type Date Time Source
LPMA TAF 2019/11/21 18:18 UTC NOAA

TAF LPMA 211700Z 2118/2218 36012KT 9999 SCT015 SCT030
TEMPO 2118/2218 VRB05KT BKN015

Example: see airport list